Time;durP1;ratioP1;P1;durP2;ratioP2;P2;SDS_P1;SDS_P2;PMS_P1;PMS_P2;Temp;Humidity;BMP_temperature;BMP_pressure;BME280_temperature;BME280_humidity;BME280_pressure;Samples;Min_cycle;Max_cycle;Signal;HPM_P1;HPM_P2
2021/09/13 00:00:54;;;;;;;12.73;11.63;;;;;;;22.38;53.31;95512.53;5010367;28;20041;-76
2021/09/13 00:03:19;;;;;;;11.65;10.55;;;;;;;22.42;52.81;95510.63;5010204;28;20034;-76
2021/09/13 00:05:44;;;;;;;13.63;12.43;;;;;;;22.50;52.83;95523.13;5010320;28;20137;-76
2021/09/13 00:08:10;;;;;;;15.48;14.07;;;;;;;22.51;52.73;95521.97;5023347;23;20049;-67
2021/09/13 00:10:35;;;;;;;16.20;14.63;;;;;;;22.53;52.93;95525.88;5010739;28;20467;-67
2021/09/13 00:13:01;;;;;;;14.10;13.00;;;;;;;22.57;52.92;95525.91;5008851;28;20034;-68
2021/09/13 00:15:26;;;;;;;13.35;12.25;;;;;;;22.57;52.92;95518.56;5009017;28;20695;-68
2021/09/13 00:17:52;;;;;;;12.77;11.57;;;;;;;22.70;52.81;95526.44;5008998;28;20042;-68
2021/09/13 00:20:17;;;;;;;14.70;13.40;;;;;;;22.71;52.80;95509.78;5008768;28;20080;-68
2021/09/13 00:22:42;;;;;;;13.93;12.65;;;;;;;22.82;52.42;95529.63;4993436;28;20030;-67
2021/09/13 00:25:08;;;;;;;13.75;12.57;;;;;;;22.82;52.70;95526.94;4991643;28;20176;-67
2021/09/13 00:27:33;;;;;;;13.55;11.07;;;;;;;22.77;52.56;95511.00;5008679;28;20030;-66
2021/09/13 00:29:59;;;;;;;13.98;12.55;;;;;;;22.90;52.60;95525.09;5008379;28;20573;-68
2021/09/13 00:32:24;;;;;;;12.23;11.00;;;;;;;22.88;52.36;95515.75;5009050;28;20042;-67
2021/09/13 00:34:50;;;;;;;12.75;11.68;;;;;;;23.05;52.22;95537.66;5010929;28;20030;-67
2021/09/13 00:37:15;;;;;;;10.32;9.52;;;;;;;23.03;51.89;95520.97;5008998;28;20509;-68
2021/09/13 00:39:40;;;;;;;12.57;11.20;;;;;;;23.19;51.76;95534.28;5008924;28;20092;-67
2021/09/13 00:42:06;;;;;;;11.55;8.60;;;;;;;23.17;51.53;95522.22;5008904;28;20030;-67
2021/09/13 00:44:31;;;;;;;10.32;9.43;;;;;;;23.27;51.40;95532.38;5009146;28;20037;-66
2021/09/13 00:46:59;;;;;;;10.05;9.00;;;;;;;23.39;51.02;95539.44;5009209;28;20025;-67
2021/09/13 00:49:24;;;;;;;9.90;8.98;;;;;;;23.43;51.11;95538.31;5010328;28;20100;-67
2021/09/13 00:51:50;;;;;;;10.85;9.85;;;;;;;23.34;51.06;95516.19;5008771;28;20198;-67
2021/09/13 00:54:15;;;;;;;9.52;8.85;;;;;;;23.44;50.61;95530.97;5008738;28;20034;-67
2021/09/13 00:56:45;;;;;;;9.57;8.88;;;;;;;23.41;50.69;95531.72;5008297;28;20038;-67
2021/09/13 00:59:11;;;;;;;9.32;8.52;;;;;;;23.33;50.74;95528.94;5008237;28;20118;-67
2021/09/13 01:01:37;;;;;;;10.45;8.35;;;;;;;22.94;50.88;95522.44;5010664;28;20029;-67
2021/09/13 01:04:02;;;;;;;8.43;7.72;;;;;;;22.98;51.15;95515.09;5008664;28;20042;-67
2021/09/13 01:06:28;;;;;;;8.70;8.00;;;;;;;23.02;51.26;95535.66;5008675;28;20077;-67
2021/09/13 01:08:54;;;;;;;8.60;7.82;;;;;;;22.85;51.61;95517.28;5008064;28;20068;-67
2021/09/13 01:11:20;;;;;;;8.10;7.50;;;;;;;22.71;51.65;95525.28;5008173;28;20062;-67
2021/09/13 01:13:45;;;;;;;8.93;7.05;;;;;;;22.44;52.04;95513.78;5010229;28;20489;-67
2021/09/13 01:16:11;;;;;;;7.60;7.00;;;;;;;22.09;53.04;95514.88;5011825;28;20145;-66
2021/09/13 01:18:36;;;;;;;7.97;7.25;;;;;;;22.15;52.80;95518.06;4994906;28;20030;-67
2021/09/13 01:21:01;;;;;;;8.23;7.53;;;;;;;22.27;52.77;95524.03;5011912;28;20396;-67
2021/09/13 01:23:32;;;;;;;9.85;9.13;;;;;;;22.39;52.41;95520.31;5012432;28;20045;-67
2021/09/13 01:25:58;;;;;;;10.05;9.15;;;;;;;22.48;52.07;95520.78;5012160;28;20479;-67
2021/09/13 01:28:24;;;;;;;10.95;10.15;;;;;;;22.47;52.04;95529.28;5013828;28;20079;-67
2021/09/13 01:30:51;;;;;;;9.63;8.77;;;;;;;22.39;52.10;95528.44;4994323;28;20045;-66
2021/09/13 01:33:16;;;;;;;11.38;10.27;;;;;;;22.33;52.46;95518.28;5012409;28;20116;-67
2021/09/13 01:35:41;;;;;;;12.75;11.50;;;;;;;22.24;52.45;95527.47;4994580;28;20180;-67
2021/09/13 01:38:07;;;;;;;13.25;12.18;;;;;;;22.16;52.64;95520.44;5012157;28;20038;-68
2021/09/13 01:40:33;;;;;;;11.68;10.05;;;;;;;22.06;52.53;95508.28;5013524;28;20505;-68
2021/09/13 01:42:59;;;;;;;15.38;9.30;;;;;;;22.10;52.80;95524.56;5011610;28;20064;-68
2021/09/13 01:45:25;;;;;;;9.85;9.05;;;;;;;22.05;52.86;95520.25;5011951;28;20388;-68
2021/09/13 01:47:51;;;;;;;13.57;12.45;;;;;;;22.02;52.79;95520.22;5011992;28;20117;-67
2021/09/13 01:50:17;;;;;;;11.45;10.55;;;;;;;21.98;52.91;95522.88;5011468;28;20124;-67
2021/09/13 01:52:42;;;;;;;10.35;9.55;;;;;;;21.87;52.72;95513.84;5013734;28;20535;-67
2021/09/13 01:55:08;;;;;;;9.65;8.95;;;;;;;21.87;52.69;95518.47;5012005;28;20496;-67
2021/09/13 01:57:33;;;;;;;13.82;12.63;;;;;;;21.82;52.82;95516.09;5011263;28;20121;-67
2021/09/13 01:59:59;;;;;;;10.73;9.85;;;;;;;21.72;52.81;95506.69;5011366;28;20180;-68
2021/09/13 02:02:24;;;;;;;13.15;12.05;;;;;;;21.71;52.78;95510.53;5011591;28;20403;-68
2021/09/13 02:04:50;;;;;;;10.80;9.70;;;;;;;21.64;52.82;95508.50;5013523;28;20167;-67
2021/09/13 02:07:15;;;;;;;11.25;10.32;;;;;;;21.56;52.72;95504.13;5011535;28;20026;-67
2021/09/13 02:09:40;;;;;;;12.65;11.55;;;;;;;21.57;53.02;95515.75;5011063;28;20176;-67
2021/09/13 02:12:06;;;;;;;12.25;11.02;;;;;;;21.53;53.19;95510.28;5011022;28;20037;-67
2021/09/13 02:14:31;;;;;;;10.60;9.55;;;;;;;21.50;53.02;95514.50;4992901;28;20053;-66
2021/09/13 02:16:57;;;;;;;12.23;11.13;;;;;;;21.44;52.96;95512.44;5010603;28;20032;-67
2021/09/13 02:19:22;;;;;;;10.90;10.00;;;;;;;21.24;53.46;95520.66;5012821;28;20022;-65
2021/09/13 02:21:47;;;;;;;11.65;10.63;;;;;;;21.26;53.64;95523.75;5011516;28;20112;-67
2021/09/13 02:24:13;;;;;;;9.52;8.82;;;;;;;21.29;53.66;95512.22;5011478;28;20060;-66
2021/09/13 02:26:38;;;;;;;11.73;10.57;;;;;;;21.28;53.56;95515.28;5010584;28;20157;-66
2021/09/13 02:29:03;;;;;;;12.77;11.77;;;;;;;21.33;53.46;95525.03;5010640;28;20064;-66
2021/09/13 02:31:29;;;;;;;11.35;10.25;;;;;;;21.23;53.45;95512.88;5013569;28;20092;-67
2021/09/13 02:33:54;;;;;;;11.25;10.20;;;;;;;21.23;53.61;95515.59;5010998;28;20127;-66
2021/09/13 02:36:20;;;;;;;13.55;12.35;;;;;;;21.31;53.46;95517.31;5010850;28;20042;-66
2021/09/13 02:38:45;;;;;;;12.45;11.40;;;;;;;21.27;53.38;95519.13;5010594;28;20061;-66
2021/09/13 02:41:10;;;;;;;14.60;13.40;;;;;;;21.11;53.59;95502.25;5010641;28;20026;-66
2021/09/13 02:43:36;;;;;;;13.02;11.70;;;;;;;21.16;53.71;95508.16;5012581;28;20030;-66
2021/09/13 02:46:02;;;;;;;14.35;12.95;;;;;;;21.14;53.57;95506.94;4993350;28;20054;-66
2021/09/13 02:48:27;;;;;;;13.90;12.60;;;;;;;21.13;53.62;95497.25;5010656;28;20504;-67
2021/09/13 02:50:53;;;;;;;15.55;14.00;;;;;;;21.21;53.43;95515.97;5010585;28;20042;-67
2021/09/13 02:53:18;;;;;;;16.75;15.10;;;;;;;21.16;53.55;95508.16;5010719;28;20133;-68
2021/09/13 02:55:43;;;;;;;16.98;15.38;;;;;;;21.10;53.50;95495.31;5012688;28;20030;-67
2021/09/13 02:58:09;;;;;;;16.88;15.27;;;;;;;21.10;53.62;95506.91;4992312;28;20034;-67
2021/09/13 03:00:34;;;;;;;14.85;13.38;;;;;;;21.09;53.64;95512.66;5010250;28;20399;-66
2021/09/13 03:02:59;;;;;;;11.60;10.60;;;;;;;21.06;53.75;95507.97;5010497;28;20034;-66
2021/09/13 03:05:25;;;;;;;13.63;12.32;;;;;;;20.98;53.75;95496.25;5010331;28;20121;-66
2021/09/13 03:07:50;;;;;;;12.73;11.63;;;;;;;20.95;53.88;95492.38;5012102;28;20539;-66
2021/09/13 03:10:16;;;;;;;15.57;13.90;;;;;;;20.88;53.83;95499.56;5009896;28;20129;-67
2021/09/13 03:12:41;;;;;;;12.85;10.88;;;;;;;20.86;53.74;95496.44;4992384;28;20076;-67
2021/09/13 03:15:08;;;;;;;11.48;10.57;;;;;;;20.85;53.67;95508.41;5010031;28;20049;-66
2021/09/13 03:17:34;;;;;;;11.70;10.65;;;;;;;20.82;53.91;95515.31;5010119;28;20083;-67
2021/09/13 03:19:59;;;;;;;13.00;11.80;;;;;;;20.77;53.82;95505.56;4992008;28;20026;-67
2021/09/13 03:22:25;;;;;;;13.45;12.45;;;;;;;20.75;54.01;95512.50;4994437;28;20472;-67
2021/09/13 03:24:50;;;;;;;11.90;10.98;;;;;;;20.70;54.12;95501.97;5010297;28;20384;-67
2021/09/13 03:27:16;;;;;;;15.40;14.05;;;;;;;20.68;54.17;95499.63;4992060;28;20038;-67
2021/09/13 03:29:41;;;;;;;17.85;15.25;;;;;;;20.71;54.02;95503.53;5009346;28;20026;-68
2021/09/13 03:32:07;;;;;;;15.85;14.07;;;;;;;20.68;54.13;95512.38;5010000;28;20468;-67
2021/09/13 03:34:32;;;;;;;16.95;15.23;;;;;;;20.62;54.11;95498.34;4994235;28;20034;-66
2021/09/13 03:36:59;;;;;;;19.25;16.70;;;;;;;20.60;54.09;95499.88;5009426;28;20042;-67
2021/09/13 03:39:25;;;;;;;15.63;14.23;;;;;;;20.58;54.32;95500.22;5009242;28;20029;-67
2021/09/13 03:41:51;;;;;;;16.63;15.13;;;;;;;20.59;54.07;95504.50;5009303;28;20099;-67
2021/09/13 03:44:16;;;;;;;16.52;14.95;;;;;;;20.63;54.29;95515.38;5009630;28;20029;-67
2021/09/13 03:46:41;;;;;;;17.17;15.43;;;;;;;20.59;54.37;95501.78;4994114;28;20104;-66
2021/09/13 03:49:07;;;;;;;16.27;14.65;;;;;;;20.63;54.39;95509.97;5009331;28;20495;-66
2021/09/13 03:51:32;;;;;;;21.10;18.92;;;;;;;20.56;54.25;95490.91;5009817;28;20087;-67
2021/09/13 03:53:58;;;;;;;18.45;16.50;;;;;;;20.59;54.22;95501.78;5009765;28;20041;-67
2021/09/13 03:56:23;;;;;;;25.92;20.60;;;;;;;20.48;54.19;95490.78;5009293;28;20050;-67
2021/09/13 03:58:49;;;;;;;28.95;23.30;;;;;;;20.51;54.32;95494.69;5011010;28;20105;-67
2021/09/13 04:01:14;;;;;;;21.70;19.25;;;;;;;20.48;54.16;95496.19;5009332;28;20515;-67
2021/09/13 04:03:46;;;;;;;28.10;22.30;;;;;;;20.49;54.37;95496.97;5009393;28;20048;-66
2021/09/13 04:06:25;;;;;;;18.33;16.67;;;;;;;20.40;54.33;95485.56;5009668;28;20380;-67
2021/09/13 04:09:06;;;;;;;25.60;21.55;;;;;;;20.49;54.23;95491.56;5009012;28;20543;-67
2021/09/13 04:14:16;;;;;;;27.10;21.88;;;;;;;20.41;54.14;95484.44;5009398;28;20128;-68
2021/09/13 04:16:42;;;;;;;25.45;20.63;;;;;;;20.39;54.14;95487.50;4993364;28;20076;-67
2021/09/13 04:19:07;;;;;;;30.60;23.17;;;;;;;20.39;54.29;95481.31;5008712;28;20038;-66
2021/09/13 04:21:33;;;;;;;33.50;25.25;;;;;;;20.44;54.28;95489.13;5009194;28;20030;-67
2021/09/13 04:23:58;;;;;;;18.63;16.60;;;;;;;20.38;54.51;95482.47;5009094;28;20026;-67
2021/09/13 04:26:24;;;;;;;18.02;16.33;;;;;;;20.37;54.45;95483.56;5009012;28;20050;-67
2021/09/13 04:28:49;;;;;;;21.92;19.73;;;;;;;20.39;54.43;95486.72;5010241;28;20036;-66
2021/09/13 04:31:14;;;;;;;21.63;19.30;;;;;;;20.32;54.39;95478.47;5009548;28;20042;-66
2021/09/13 04:33:40;;;;;;;23.25;19.95;;;;;;;20.35;54.27;95475.06;4991826;28;20054;-67
2021/09/13 04:36:05;;;;;;;19.98;17.80;;;;;;;20.39;54.29;95482.09;5009142;28;20045;-67
2021/09/13 04:38:30;;;;;;;19.33;17.35;;;;;;;20.36;54.45;95490.91;5009071;28;20038;-66
2021/09/13 04:40:56;;;;;;;24.40;21.65;;;;;;;20.40;54.39;95488.28;5008978;28;20461;-66
2021/09/13 04:43:21;;;;;;;25.90;21.95;;;;;;;20.41;54.48;95489.84;5010530;28;20042;-66
2021/09/13 04:45:46;;;;;;;20.90;18.77;;;;;;;20.33;54.40;95474.66;4990867;28;20058;-67
2021/09/13 04:48:12;;;;;;;21.92;19.60;;;;;;;20.37;54.51;95478.97;5008634;28;20046;-67
2021/09/13 04:50:37;;;;;;;21.60;19.42;;;;;;;20.35;54.20;95475.84;5007441;28;20034;-67
2021/09/13 04:53:02;;;;;;;27.35;22.42;;;;;;;20.37;54.30;95480.88;5008774;28;20030;-66
2021/09/13 04:55:28;;;;;;;26.83;21.13;;;;;;;20.30;54.21;95470.72;5010638;28;20022;-66
2021/09/13 04:57:53;;;;;;;23.15;20.65;;;;;;;20.32;54.37;95476.56;5008010;28;20443;-67
2021/09/13 05:00:21;;;;;;;30.38;22.33;;;;;;;20.35;54.22;95473.13;5008007;28;20137;-67
2021/09/13 05:02:47;;;;;;;19.98;17.90;;;;;;;20.46;54.09;95481.44;5008678;28;20053;-67
2021/09/13 05:05:12;;;;;;;18.35;16.33;;;;;;;20.48;54.07;95481.91;5008722;28;20073;-68
2021/09/13 05:07:38;;;;;;;19.40;17.35;;;;;;;20.52;54.15;95485.44;5010605;28;20104;-68
2021/09/13 05:10:03;;;;;;;21.88;19.67;;;;;;;20.49;54.13;95478.84;4990470;28;20054;-68
2021/09/13 05:12:29;;;;;;;25.50;21.52;;;;;;;20.40;54.17;95462.03;5008063;28;20022;-74
2021/09/13 05:14:54;;;;;;;19.77;17.77;;;;;;;20.58;53.92;95473.22;4990791;28;20518;-72
2021/09/13 05:17:20;;;;;;;20.77;18.20;;;;;;;20.70;53.91;95489.25;5008827;28;20065;-65
2021/09/13 05:19:45;;;;;;;22.85;20.48;;;;;;;20.75;53.61;95483.53;5010280;28;20464;-67
2021/09/13 05:22:10;;;;;;;23.30;20.85;;;;;;;20.80;53.87;95484.38;5003796;28;20104;-70
2021/09/13 05:24:36;;;;;;;22.63;20.25;;;;;;;20.85;53.61;95487.56;5008371;28;20062;-67
2021/09/13 05:27:02;;;;;;;21.58;19.38;;;;;;;20.95;53.59;95494.28;4990391;28;20045;-69
2021/09/13 05:29:27;;;;;;;19.83;16.95;;;;;;;21.05;53.42;95495.59;5008532;28;20042;-66
2021/09/13 05:31:53;;;;;;;20.85;18.83;;;;;;;21.12;53.17;95498.41;5008542;28;20022;-63
2021/09/13 05:34:19;;;;;;;17.25;15.75;;;;;;;21.11;52.89;95486.03;5010550;28;20033;-67
2021/09/13 05:36:44;;;;;;;14.18;12.75;;;;;;;21.24;52.83;95504.41;5008852;28;20034;-81
2021/09/13 05:39:10;;;;;;;16.38;14.95;;;;;;;21.24;52.67;95492.78;4991652;28;20057;-67
2021/09/13 05:41:35;;;;;;;12.40;11.30;;;;;;;21.35;52.35;95493.00;5008450;28;20057;-68
2021/09/13 05:44:01;;;;;;;15.35;13.63;;;;;;;21.42;52.36;95499.28;4991014;28;20658;-70
2021/09/13 05:46:26;;;;;;;14.13;13.02;;;;;;;21.47;52.05;95495.50;4992550;28;20494;-72
2021/09/13 05:48:52;;;;;;;14.70;11.88;;;;;;;21.59;51.85;95497.19;5007915;28;20045;-69
2021/09/13 05:51:17;;;;;;;12.02;10.82;;;;;;;21.35;52.54;95493.78;5009271;28;20031;-72
2021/09/13 05:53:42;;;;;;;12.43;11.23;;;;;;;21.57;52.40;95492.16;5008226;28;20439;-71
2021/09/13 05:56:08;;;;;;;11.65;10.65;;;;;;;20.81;53.95;95485.94;5018921;28;20049;-70
2021/09/13 05:58:34;;;;;;;11.45;10.30;;;;;;;21.36;53.14;95511.56;5020374;28;20014;-68
2021/09/13 06:01:00;;;;;;;12.18;11.02;;;;;;;21.80;52.46;95511.03;5012496;28;20132;-71
2021/09/13 06:03:25;;;;;;;13.00;11.90;;;;;;;22.02;51.79;95503.97;5012856;28;20129;-76
2021/09/13 06:05:50;;;;;;;11.32;10.23;;;;;;;22.18;51.51;95493.75;4995667;28;20077;-78
2021/09/13 06:08:16;;;;;;;12.95;11.60;;;;;;;22.43;50.79;95510.28;4995086;28;20508;-71
2021/09/13 06:10:41;;;;;;;12.60;11.40;;;;;;;22.52;50.99;95499.94;4996932;28;20029;-73
2021/09/13 06:13:11;;;;;;;12.13;11.07;;;;;;;22.66;50.67;95499.28;5011868;28;20133;-74
2021/09/13 06:15:37;;;;;;;10.40;9.40;;;;;;;22.75;50.37;95502.47;5012122;28;20058;-74
2021/09/13 06:18:02;;;;;;;11.20;10.20;;;;;;;22.93;50.42;95510.81;5012037;28;20053;-73
2021/09/13 06:20:28;;;;;;;12.00;10.77;;;;;;;23.00;50.24;95508.16;5011654;28;20432;-80
2021/09/13 06:22:53;;;;;;;13.48;11.93;;;;;;;23.14;49.83;95512.16;5012494;28;20037;-71
2021/09/13 06:25:18;;;;;;;11.18;10.27;;;;;;;23.19;49.65;95509.88;5013561;28;20385;-72
2021/09/13 06:27:44;;;;;;;10.65;9.73;;;;;;;23.20;48.79;95519.56;5011158;28;20030;-73
2021/09/13 06:30:10;;;;;;;11.13;10.20;;;;;;;23.12;49.38;95507.06;5010489;28;20038;-73
2021/09/13 06:32:35;;;;;;;10.20;9.40;;;;;;;23.36;48.65;95524.72;5011589;28;20065;-72
2021/09/13 06:35:00;;;;;;;9.80;8.82;;;;;;;22.70;49.74;95507.44;5011617;28;20113;-74
2021/09/13 06:37:26;;;;;;;10.68;9.80;;;;;;;22.59;50.39;95515.47;5013567;28;20472;-74
2021/09/13 06:39:56;;;;;;;10.52;9.45;;;;;;;22.85;49.96;95514.56;5011218;28;20400;-74
2021/09/13 06:42:22;;;;;;;10.20;9.25;;;;;;;22.49;50.85;95516.16;5011193;28;20069;-75
2021/09/13 06:44:49;;;;;;;9.45;8.75;;;;;;;23.13;49.62;95518.69;5011408;28;20061;-74
2021/09/13 06:49:49;;;;;;;10.77;9.77;;;;;;;23.23;49.10;95526.16;5012917;28;20030;-64
2021/09/13 06:52:14;;;;;;;10.65;9.15;;;;;;;23.64;48.40;95537.72;5010665;28;20045;-65
2021/09/13 06:54:40;;;;;;;10.40;9.50;;;;;;;23.50;48.44;95526.75;5010247;28;20061;-65
2021/09/13 06:57:05;;;;;;;9.50;8.65;;;;;;;23.98;47.88;95522.03;5010049;28;20442;-65
2021/09/13 06:59:31;;;;;;;10.68;9.77;;;;;;;24.13;47.32;95531.03;5009697;28;20050;-66
2021/09/13 07:01:56;;;;;;;9.25;8.55;;;;;;;23.82;47.08;95475.38;4993176;28;20018;-65
2021/09/13 07:04:23;;;;;;;10.55;9.52;;;;;;;24.39;46.66;95529.97;5012335;28;20060;-65
2021/09/13 07:06:51;;;;;;;9.68;8.88;;;;;;;24.42;47.20;95523.00;5010346;28;20049;-66
2021/09/13 07:09:17;;;;;;;10.13;9.32;;;;;;;24.59;46.67;95549.47;4991789;28;20381;-66
2021/09/13 07:11:42;;;;;;;10.27;9.30;;;;;;;24.67;46.70;95536.66;5009598;28;20049;-65
2021/09/13 07:14:08;;;;;;;10.23;9.32;;;;;;;24.74;46.39;95539.41;4991637;28;20018;-65
2021/09/13 07:16:33;;;;;;;10.13;9.32;;;;;;;24.84;46.25;95539.44;5011782;28;20579;-65
2021/09/13 07:19:00;;;;;;;10.13;9.32;;;;;;;24.74;46.58;95533.97;5009488;28;20088;-65
2021/09/13 07:21:25;;;;;;;10.88;9.98;;;;;;;24.88;46.02;95534.00;5010123;28;20034;-65
2021/09/13 07:23:50;;;;;;;11.35;8.23;;;;;;;24.76;46.01;95524.25;5010024;28;20040;-65
2021/09/13 07:26:16;;;;;;;8.98;8.27;;;;;;;24.90;46.20;95537.88;5010016;28;20038;-65
2021/09/13 07:28:41;;;;;;;8.80;8.10;;;;;;;25.09;45.79;95542.22;5011145;28;20069;-66
2021/09/13 07:31:06;;;;;;;9.82;8.95;;;;;;;25.23;45.31;95535.22;5009870;28;20480;-67
2021/09/13 07:33:32;;;;;;;9.93;9.02;;;;;;;25.23;44.90;95546.09;5010064;28;20072;-67
2021/09/13 07:35:57;;;;;;;9.82;9.02;;;;;;;25.32;45.02;95527.44;5009864;28;20036;-67
2021/09/13 07:38:24;;;;;;;10.27;9.27;;;;;;;25.64;44.78;95549.19;5009705;28;20046;-67
2021/09/13 07:40:50;;;;;;;9.85;8.68;;;;;;;25.56;44.47;95551.16;5011613;28;20033;-67
2021/09/13 07:43:15;;;;;;;9.45;8.75;;;;;;;25.70;44.42;95539.47;5009271;28;20033;-67
2021/09/13 07:45:40;;;;;;;10.00;8.98;;;;;;;25.85;43.70;95549.22;5009692;28;20053;-67
2021/09/13 07:48:06;;;;;;;8.93;8.02;;;;;;;25.89;43.91;95549.97;4991952;28;20049;-67
2021/09/13 07:50:31;;;;;;;14.85;9.70;;;;;;;26.11;43.65;95544.47;5009181;28;20084;-66
2021/09/13 07:52:57;;;;;;;10.30;9.20;;;;;;;26.55;43.23;95551.31;5009252;28;20021;-67
2021/09/13 07:55:22;;;;;;;9.07;8.27;;;;;;;26.60;42.74;95548.97;5011393;28;20029;-67
2021/09/13 07:57:47;;;;;;;9.13;8.32;;;;;;;26.87;41.86;95551.94;5009067;28;20038;-67
2021/09/13 08:00:14;;;;;;;9.45;8.55;;;;;;;27.18;41.71;95550.22;5008823;28;20042;-66
2021/09/13 08:02:40;;;;;;;8.00;7.30;;;;;;;27.38;40.95;95555.13;5009538;28;20109;-66
2021/09/13 08:05:06;;;;;;;7.68;7.07;;;;;;;27.55;40.42;95558.91;5009448;28;20118;-66
2021/09/13 08:07:31;;;;;;;6.75;6.25;;;;;;;27.75;40.33;95561.88;5011065;28;20030;-65
2021/09/13 08:09:57;;;;;;;7.45;6.55;;;;;;;28.01;39.34;95554.97;5008721;28;20403;-66
2021/09/13 08:12:22;;;;;;;6.10;5.50;;;;;;;28.40;39.36;95566.25;5009450;28;20068;-66
2021/09/13 08:14:47;;;;;;;5.90;5.30;;;;;;;28.04;38.02;95567.81;5008900;28;20100;-66
2021/09/13 08:17:13;;;;;;;5.38;4.95;;;;;;;28.44;37.94;95566.22;5008855;28;20088;-66
2021/09/13 08:19:40;;;;;;;5.80;5.40;;;;;;;28.34;37.27;95569.88;5010764;28;20030;-66
2021/09/13 08:22:07;;;;;;;5.28;4.88;;;;;;;28.62;36.80;95568.75;5009056;28;20026;-67
2021/09/13 08:24:33;;;;;;;20.67;9.32;;;;;;;28.85;36.61;95568.06;5008920;28;20104;-66
2021/09/13 08:26:59;;;;;;;11.40;6.90;;;;;;;28.87;36.76;95566.47;5008629;28;20033;-66
2021/09/13 08:29:24;;;;;;;28.73;10.38;;;;;;;29.13;36.77;95562.22;5007865;28;20049;-66
2021/09/13 08:31:51;;;;;;;8.85;6.05;;;;;;;29.20;36.64;95575.78;5010910;28;20061;-66
2021/09/13 08:34:17;;;;;;;7.78;5.93;;;;;;;28.98;36.91;95564.38;5008883;28;20041;-65
2021/09/13 08:36:43;;;;;;;6.25;5.72;;;;;;;29.06;36.74;95570.53;5008891;28;20104;-66
2021/09/13 08:39:09;;;;;;;5.93;5.45;;;;;;;28.91;36.56;95575.38;5008621;28;20065;-66
2021/09/13 08:41:35;;;;;;;5.88;5.38;;;;;;;28.63;37.60;95576.56;5008890;28;20080;-66
2021/09/13 08:44:01;;;;;;;6.38;5.88;;;;;;;28.26;37.71;95569.16;5008421;28;20071;-65
2021/09/13 08:46:37;;;;;;;5.72;4.90;;;;;;;28.49;37.81;95587.66;5010568;28;20559;-66
2021/09/13 08:49:07;;;;;;;6.15;5.65;;;;;;;28.50;38.07;95586.47;5008462;28;20033;-66
2021/09/13 08:51:33;;;;;;;6.57;5.97;;;;;;;28.38;38.28;95587.78;5008668;28;20065;-66
2021/09/13 08:54:03;;;;;;;6.28;5.55;;;;;;;28.43;38.32;95587.34;4991042;28;20046;-65
2021/09/13 08:56:37;;;;;;;6.43;5.30;;;;;;;28.39;37.91;95592.06;5008748;28;20033;-66
2021/09/13 08:59:04;;;;;;;6.43;5.82;;;;;;;28.47;38.01;95596.28;4990042;28;20018;-65
2021/09/13 09:01:30;;;;;;;5.35;4.95;;;;;;;28.32;38.09;95589.41;5010360;28;20198;-66
2021/09/13 09:03:57;;;;;;;6.00;5.35;;;;;;;28.47;38.19;95598.25;5008734;28;20100;-66
2021/09/13 09:06:41;;;;;;;5.82;5.32;;;;;;;28.12;38.60;95580.25;5008630;28;20033;-66
2021/09/13 09:09:12;;;;;;;5.82;5.35;;;;;;;27.98;38.73;95603.03;5008155;28;20038;-65
2021/09/13 09:12:00;;;;;;;6.88;6.15;;;;;;;27.37;39.92;95600.00;4990841;28;20030;-66
2021/09/13 09:14:29;;;;;;;6.80;6.30;;;;;;;26.84;40.80;95604.59;5006147;28;20236;-66
2021/09/13 09:17:00;;;;;;;6.22;5.63;;;;;;;27.16;40.64;95598.19;5008314;28;20098;-67
2021/09/13 09:19:26;;;;;;;6.55;6.00;;;;;;;27.52;40.33;95593.25;5009909;28;20097;-66
2021/09/13 09:21:51;;;;;;;8.73;6.30;;;;;;;27.43;40.26;95590.19;5008364;28;20045;-68
2021/09/13 09:24:17;;;;;;;6.30;5.80;;;;;;;27.78;39.78;95596.59;5008451;28;20049;-66
2021/09/13 09:27:00;;;;;;;6.45;5.95;;;;;;;28.01;38.99;95594.03;5008345;28;20030;-64
2021/09/13 09:29:28;;;;;;;7.03;6.45;;;;;;;27.80;39.68;95589.53;5007509;28;20042;-67
2021/09/13 09:31:59;;;;;;;7.22;6.63;;;;;;;27.45;40.20;95594.09;5008276;28;20064;-68
2021/09/13 09:34:26;;;;;;;6.35;5.75;;;;;;;27.89;39.59;95595.28;5010523;28;20026;-66
2021/09/13 09:36:57;;;;;;;7.35;6.05;;;;;;;27.88;39.58;95596.47;5010967;28;20418;-69
2021/09/13 09:39:28;;;;;;;6.38;5.88;;;;;;;28.21;39.19;95595.00;5011837;28;20598;-66
2021/09/13 09:41:56;;;;;;;6.70;6.10;;;;;;;28.20;39.32;95587.19;4994224;28;20038;-66
2021/09/13 09:44:21;;;;;;;9.73;5.93;;;;;;;28.63;38.95;95589.47;5011376;28;20038;-70
2021/09/13 09:46:47;;;;;;;6.20;5.70;;;;;;;28.91;38.28;95583.59;5013737;28;20030;-69
2021/09/13 09:49:17;;;;;;;6.30;5.82;;;;;;;29.18;37.78;95589.13;4993977;28;20070;-69
2021/09/13 09:51:50;;;;;;;6.55;5.95;;;;;;;28.82;38.32;95588.03;5011887;28;20582;-68
2021/09/13 09:54:21;;;;;;;7.22;6.60;;;;;;;28.34;38.48;95586.28;5011881;28;20038;-68
2021/09/13 09:56:48;;;;;;;;;;;;;;;29.05;37.96;95590.13;4994303;28;20522;-68
2021/09/13 09:59:17;;;;;;;6.55;5.78;;;;;;;29.42;36.87;95589.94;5010985;28;19925;-68
2021/09/13 10:01:45;;;;;;;7.10;6.50;;;;;;;29.63;36.48;95577.88;4996024;28;20383;-69
2021/09/13 10:04:22;;;;;;;6.32;5.72;;;;;;;30.14;36.04;95561.34;5011393;28;20061;-68
2021/09/13 10:06:51;;;;;;;5.63;5.13;;;;;;;30.34;35.93;95570.38;5012178;28;20037;-68
2021/09/13 10:09:18;;;;;;;6.72;6.18;;;;;;;30.00;35.67;95574.13;5011266;28;20045;-68
2021/09/13 10:11:44;;;;;;;6.47;5.93;;;;;;;29.37;36.80;95571.22;5011703;28;20034;-68
2021/09/13 10:14:12;;;;;;;6.90;6.22;;;;;;;29.92;36.21;95571.91;5011042;28;20493;-68
2021/09/13 10:16:40;;;;;;;6.53;5.93;;;;;;;29.58;36.11;95569.34;5013062;28;20033;-69
2021/09/13 10:19:06;;;;;;;6.57;5.82;;;;;;;29.52;36.68;95563.56;5010761;28;20038;-68
2021/09/13 10:21:32;;;;;;;6.03;5.53;;;;;;;29.34;36.70;95571.28;5011257;28;20120;-68
2021/09/13 10:24:00;;;;;;;6.22;5.63;;;;;;;29.25;37.24;95571.81;5011458;28;20064;-68
2021/09/13 10:26:26;;;;;;;6.07;5.60;;;;;;;28.74;37.94;95557.25;5011172;28;20137;-68
2021/09/13 10:29:03;;;;;;;5.63;5.22;;;;;;;28.56;38.29;95573.13;5012136;28;20100;-68
2021/09/13 10:31:47;;;;;;;5.00;4.60;;;;;;;29.11;38.31;95564.56;5011128;28;20042;-68
2021/09/13 10:34:19;;;;;;;5.40;4.90;;;;;;;29.27;37.39;95563.94;5011179;28;20523;-68
2021/09/13 10:37:17;;;;;;;6.15;5.65;;;;;;;29.01;37.83;95562.75;5010855;28;20045;-69
2021/09/13 10:40:03;;;;;;;5.80;5.40;;;;;;;29.27;37.49;95561.19;5010317;28;20129;-62
2021/09/13 10:42:38;;;;;;;6.82;5.75;;;;;;;28.56;38.40;95559.44;5010591;28;20037;-62
2021/09/13 10:45:20;;;;;;;5.70;5.18;;;;;;;28.81;38.48;95557.13;5010062;28;20041;-64
2021/09/13 10:47:49;;;;;;;7.90;5.68;;;;;;;28.82;38.32;95555.97;5009232;28;20495;-66
2021/09/13 10:50:19;;;;;;;7.22;5.97;;;;;;;28.69;38.00;95533.06;4992432;28;20543;-62
2021/09/13 10:52:46;;;;;;;6.50;5.90;;;;;;;28.67;38.65;95555.38;5012703;28;20104;-64
2021/09/13 10:55:16;;;;;;;7.47;5.32;;;;;;;28.55;38.91;95552.41;5010683;28;20072;-63
2021/09/13 10:58:00;;;;;;;6.53;4.85;;;;;;;28.60;37.72;95551.97;5010648;28;20101;-63
2021/09/13 11:00:37;;;;;;;6.18;4.57;;;;;;;28.64;38.94;95548.00;5009488;28;20124;-63
2021/09/13 11:03:28;;;;;;;6.40;5.93;;;;;;;28.82;38.37;95545.03;5010333;28;20510;-63
2021/09/13 11:06:03;;;;;;;6.43;5.80;;;;;;;28.70;38.83;95545.56;5010426;28;20038;-65
2021/09/13 11:08:30;;;;;;;5.65;5.25;;;;;;;28.51;38.80;95547.00;5010060;28;20049;-61
2021/09/13 11:10:55;;;;;;;6.40;5.80;;;;;;;28.84;39.12;95545.38;5010120;28;20034;-63
2021/09/13 11:13:21;;;;;;;7.07;5.72;;;;;;;28.11;39.48;95530.25;4994342;28;20353;-62
2021/09/13 11:15:47;;;;;;;7.03;5.30;;;;;;;28.90;38.23;95532.00;5010111;28;20554;-71
2021/09/13 11:18:29;;;;;;;5.70;5.18;;;;;;;29.20;37.86;95540.19;5010057;28;20046;-71
2021/09/13 11:20:57;;;;;;;;;;;;;;;29.45;37.57;95539.78;5009869;28;20057;-72
2021/09/13 11:23:33;;;;;;;6.10;5.60;;;;;;;28.83;38.32;95535.63;5010229;28;19922;-69
2021/09/13 11:25:58;;;;;;;5.88;5.35;;;;;;;29.12;37.62;95536.00;5010057;28;20033;-69
2021/09/13 11:28:23;;;;;;;4.93;4.63;;;;;;;29.07;37.45;95530.22;5011632;28;20384;-70